METAR AND TAF INFORMATION
METAR FOR LGKV
ADDS - METARS form results

(1530 UTC 19 May 2019)
Data provider http://aviationweather.gov/metar/data/
 
METAR text: LGKV 191520Z 10005KT 9999 FEW030 23/15 Q1009
Conditions at: LGKV (KAVALA/CHRISOUPO, GR) observed 1520 UTC 19 May 2019
Temperature: 23.0°C (73°F)
Dewpoint: 15.0°C (59°F) [RH = 61%]
Pressure (altimeter): 29.79 inches Hg (1009.0 mb)
Winds: from the E (100 degrees) at 6 MPH (5 knots; 2.6 m/s)
Visibility: 6 or more miles (10+ km)
Ceiling: at least 12,000 feet AGL
Clouds: few clouds at 3000 feet AGL
Weather: no significant weather observed at this time

METAR text: LGKV 191450Z 11003KT 9999 FEW030 23/15 Q1010
Conditions at: LGKV (KAVALA/CHRISOUPO, GR) observed 1450 UTC 19 May 2019
Temperature: 23.0°C (73°F)
Dewpoint: 15.0°C (59°F) [RH = 61%]
Pressure (altimeter): 29.82 inches Hg (1010.0 mb)
Winds: from the ESE (110 degrees) at 3 MPH (3 knots; 1.5 m/s)
Visibility: 6 or more miles (10+ km)
Ceiling: at least 12,000 feet AGL
Clouds: few clouds at 3000 feet AGL
Weather: no significant weather observed at this time

Forecast for: LGKV (KAVALA/CHRISOUPO, GR)
Text: TAF LGKV 191100Z 1912/2012 10005KT CAVOK
Forecast period: 1200 UTC 19 May 2019 to 0900 UTC 20 May 2019
Forecast type: FROM: standard forecast or significant change
Winds: from the E (100 degrees) at 6 MPH (5 knots; 2.6 m/s)
Visibility: 6 or more miles 10+ km)
Ceiling: unknown
Clouds: missing
Weather: NSW  (no significant weather)
Text: BECMG 2009/2011 21008KT 9999 FEW025 SCT080
Forecast period: 0900 to 1200 UTC 20 May 2019
Forecast type: BECOMING: Conditions expected to become as follows by 1100 UTC 20 May 2019
Winds: from the SSW (210 degrees) at 9 MPH (8 knots; 4.1 m/s)
Visibility: 6 or more miles 10+ km)
Ceiling: at least 12,000 feet AGL
Clouds: few clouds at 2500 feet AGL
scattered clouds at 8000 feet AGL
Weather: NSW  (no significant weather)

 ΧΑΡΤΗΣ ΑΕΡΟΔΡΟΜΙΟΥ

 RUNWAY INFORMATION
Διάδρομος 05R Runway length 9844 ft Runway width 148 ft
Runway elevation 11 ft Runway displaced threshold 0 ft Runway heading 55
Διάδρομος 23L Runway length 9844 ft Runway width 148 ft
Runway elevation 18 ft Runway displaced threshold 0 ft Runway heading 235

 ΣΥΧΝΟΤΗΤΕΣ ΑΕΡΟΔΡΟΜΙΟΥ
Τύπος A/G Όνομα RDO Συχνότητα 563.7 MHZ
Τύπος APP Όνομα KAVALA APP Συχνότητα 122.1 MHZ
Τύπος TWR Όνομα TWR Συχνότητα 118.4 MHZ

 AIRPORT NEAR NAVIGATION AIDS
Τύπος NDB Όνομα Chrisoupolis Συχνότητα 327 KHZ
Τύπος VOR-DME Όνομα Kavala Συχνότητα 108800 KHZ
Τύπος TACAN Όνομα Kavala Συχνότητα 114300 KHZ



Hellenic Air Force Virtual - All rights reserved 2019 - Powered by VAM